createdAt,value
2023-09-29T00:00:53.578Z,18.47
2023-09-29T00:03:21.467Z,19.97
2023-09-29T00:05:50.266Z,19.13
2023-09-29T00:08:18.459Z,20.93
2023-09-29T00:10:48.051Z,19.60
2023-09-29T00:13:15.513Z,19.47
2023-09-29T00:15:42.924Z,21.23
2023-09-29T00:18:11.761Z,19.27
2023-09-29T00:20:39.383Z,20.47
2023-09-29T00:23:06.978Z,20.23
2023-09-29T00:25:34.875Z,21.20
2023-09-29T00:28:02.448Z,20.63
2023-09-29T00:30:29.951Z,29.43
2023-09-29T00:32:57.547Z,20.60
2023-09-29T00:35:29.298Z,20.57
2023-09-29T00:37:58.249Z,34.97
2023-09-29T00:40:26.866Z,18.80
2023-09-29T00:42:54.749Z,29.83
2023-09-29T00:45:24.969Z,29.63
2023-09-29T00:47:56.937Z,20.70
2023-09-29T00:50:29.238Z,18.43
2023-09-29T00:53:00.820Z,17.80
2023-09-29T00:55:31.701Z,46.17
2023-09-29T00:58:00.731Z,20.40
2023-09-29T01:00:34.203Z,31.93
2023-09-29T01:03:06.125Z,21.73
2023-09-29T01:05:39.476Z,21.30
2023-09-29T01:08:10.739Z,20.07
2023-09-29T01:10:38.860Z,19.10
2023-09-29T01:13:06.836Z,20.07
2023-09-29T01:15:35.805Z,19.90
2023-09-29T01:18:03.970Z,26.40
2023-09-29T01:20:31.750Z,19.50
2023-09-29T01:23:02.316Z,20.33
2023-09-29T01:25:31.295Z,24.70
2023-09-29T01:27:59.674Z,35.83
2023-09-29T01:30:28.710Z,27.80
2023-09-29T01:33:00.426Z,19.37
2023-09-29T01:35:29.328Z,20.17
2023-09-29T01:38:00.265Z,21.53
2023-09-29T01:40:29.251Z,19.77
2023-09-29T01:42:58.906Z,55.57
2023-09-29T01:45:28.080Z,20.93
2023-09-29T01:47:56.737Z,22.73
2023-09-29T01:50:25.472Z,21.73
2023-09-29T01:52:53.662Z,18.90
2023-09-29T01:55:24.060Z,18.40
2023-09-29T01:57:55.694Z,18.07
2023-09-29T02:00:26.673Z,17.47
2023-09-29T02:02:56.168Z,17.90
2023-09-29T02:05:25.401Z,16.63
2023-09-29T02:07:53.499Z,18.40
2023-09-29T02:10:22.134Z,17.83
2023-09-29T02:12:55.326Z,16.93
2023-09-29T02:15:24.547Z,15.27
2023-09-29T02:17:52.292Z,18.10
2023-09-29T02:20:22.273Z,17.40
2023-09-29T02:22:50.630Z,17.10
2023-09-29T02:25:19.975Z,18.00
2023-09-29T02:27:48.351Z,17.20
2023-09-29T02:30:15.966Z,16.50
2023-09-29T02:32:44.836Z,17.40
2023-09-29T02:35:12.534Z,16.60
2023-09-29T02:37:40.806Z,15.93
2023-09-29T02:40:16.087Z,16.03
2023-09-29T02:42:45.426Z,18.13
2023-09-29T02:45:13.191Z,16.90
2023-09-29T02:47:42.530Z,16.00
2023-09-29T02:50:12.970Z,16.73
2023-09-29T02:52:41.548Z,16.43
2023-09-29T02:55:14.231Z,16.57
2023-09-29T02:57:43.844Z,16.13
2023-09-29T03:00:16.927Z,17.00
2023-09-29T03:02:45.018Z,16.13
2023-09-29T03:05:17.091Z,15.00
2023-09-29T03:07:45.141Z,16.30
2023-09-29T03:10:14.705Z,15.03
2023-09-29T03:12:43.863Z,16.27
2023-09-29T03:15:13.108Z,15.03
2023-09-29T03:17:40.659Z,14.07
2023-09-29T03:20:12.162Z,15.07
2023-09-29T03:22:41.714Z,15.30
2023-09-29T03:25:11.650Z,14.33
2023-09-29T03:27:40.133Z,15.70
2023-09-29T03:30:10.774Z,15.20
2023-09-29T03:32:38.462Z,15.43
2023-09-29T03:35:06.970Z,16.03
2023-09-29T03:37:37.366Z,15.33
2023-09-29T03:40:09.990Z,15.87
2023-09-29T03:42:38.174Z,15.87
2023-09-29T03:45:07.572Z,16.50
2023-09-29T03:47:35.583Z,17.27
2023-09-29T03:50:04.739Z,16.27
2023-09-29T03:52:33.326Z,15.97
2023-09-29T03:55:00.962Z,15.13
2023-09-29T03:57:29.755Z,16.40
2023-09-29T03:59:57.270Z,16.80
2023-09-29T04:02:24.759Z,17.73
2023-09-29T04:04:52.196Z,16.93
2023-09-29T04:07:19.620Z,16.87
2023-09-29T04:09:47.225Z,16.47
2023-09-29T04:12:14.651Z,15.40
2023-09-29T04:14:43.496Z,17.33
2023-09-29T04:17:10.951Z,16.13
2023-09-29T04:19:39.611Z,15.07
2023-09-29T04:22:07.089Z,15.77
2023-09-29T04:24:34.970Z,16.10
2023-09-29T04:27:02.470Z,16.10
2023-09-29T04:29:30.106Z,16.27
2023-09-29T04:31:58.964Z,15.10
2023-09-29T04:34:26.388Z,15.73
2023-09-29T04:36:54.929Z,16.00
2023-09-29T04:39:22.418Z,15.93
2023-09-29T04:41:49.934Z,15.23
2023-09-29T04:44:17.418Z,15.50
2023-09-29T04:46:44.915Z,15.53
2023-09-29T04:49:13.708Z,15.40
2023-09-29T04:51:41.149Z,15.63
2023-09-29T04:54:08.813Z,15.37
2023-09-29T04:56:36.401Z,15.17
2023-09-29T04:59:04.133Z,15.00
2023-09-29T05:01:31.765Z,16.60
2023-09-29T05:03:59.443Z,16.00
2023-09-29T05:06:29.793Z,14.60
2023-09-29T05:08:57.671Z,15.63
2023-09-29T05:11:27.204Z,16.10
2023-09-29T05:13:57.132Z,15.00
2023-09-29T05:16:25.553Z,15.80
2023-09-29T05:18:54.682Z,15.67
2023-09-29T05:21:24.127Z,15.00
2023-09-29T05:23:52.942Z,15.70
2023-09-29T05:26:20.623Z,14.70
2023-09-29T05:28:48.060Z,15.70
2023-09-29T05:31:15.519Z,15.53
2023-09-29T05:33:43.030Z,14.67
2023-09-29T05:36:10.622Z,14.57
2023-09-29T05:38:38.263Z,14.23
2023-09-29T05:41:07.288Z,14.40
2023-09-29T05:43:35.048Z,15.37
2023-09-29T05:46:02.691Z,13.30
2023-09-29T05:48:30.274Z,13.77
2023-09-29T05:50:58.077Z,13.50
2023-09-29T05:53:25.637Z,14.17
2023-09-29T05:55:53.086Z,13.87
2023-09-29T05:58:22.763Z,11.67
2023-09-29T06:00:50.440Z,13.25
2023-09-29T06:03:18.071Z,11.87
2023-09-29T06:05:45.696Z,11.20
2023-09-29T06:08:13.272Z,10.77
2023-09-29T06:10:40.975Z,11.20
2023-09-29T06:13:10.479Z,10.30
2023-09-29T06:15:40.793Z,10.32
2023-09-29T06:18:09.035Z,11.43
2023-09-29T06:20:36.683Z,10.48
2023-09-29T06:23:04.453Z,10.32
2023-09-29T06:25:31.991Z,10.32
2023-09-29T06:27:59.453Z,10.77
2023-09-29T06:30:27.086Z,9.87
2023-09-29T06:32:56.158Z,9.73
2023-09-29T06:35:23.908Z,9.90
2023-09-29T06:37:52.599Z,10.17
2023-09-29T06:40:20.146Z,10.53
2023-09-29T06:42:47.616Z,12.63
2023-09-29T06:45:15.085Z,9.67
2023-09-29T06:47:42.621Z,9.76
2023-09-29T06:50:12.321Z,9.75
2023-09-29T06:52:40.821Z,9.10
2023-09-29T06:55:09.109Z,9.63
2023-09-29T06:57:36.761Z,9.65
2023-09-29T07:00:06.981Z,9.88
2023-09-29T07:02:34.626Z,10.05
2023-09-29T07:05:04.131Z,10.13
2023-09-29T07:07:33.217Z,9.75
2023-09-29T07:10:00.704Z,10.13
2023-09-29T07:12:28.204Z,10.43
2023-09-29T07:14:55.754Z,9.85
2023-09-29T07:17:23.249Z,10.05
2023-09-29T07:19:50.695Z,9.45
2023-09-29T07:22:18.185Z,9.18
2023-09-29T07:24:47.471Z,8.88
2023-09-29T07:27:15.056Z,9.13
2023-09-29T07:29:42.574Z,10.48
2023-09-29T07:32:13.076Z,9.52
2023-09-29T07:34:40.877Z,9.07
2023-09-29T07:37:08.348Z,9.38
2023-09-29T07:39:35.750Z,8.65
2023-09-29T07:42:04.669Z,8.68
2023-09-29T07:44:33.084Z,9.20
2023-09-29T07:47:00.786Z,8.60
2023-09-29T07:49:28.914Z,10.32
2023-09-29T07:51:56.504Z,8.88
2023-09-29T07:54:24.195Z,8.95
2023-09-29T07:56:51.883Z,7.72
2023-09-29T07:59:21.015Z,7.68
2023-09-29T08:01:50.839Z,7.88
2023-09-29T08:04:18.962Z,7.88
2023-09-29T08:06:46.723Z,10.57
2023-09-29T08:09:14.845Z,8.20
2023-09-29T08:11:43.768Z,8.32
2023-09-29T08:14:12.009Z,8.55
2023-09-29T08:16:40.905Z,8.02
2023-09-29T08:19:08.429Z,7.45
2023-09-29T08:21:36.103Z,7.22
2023-09-29T08:24:05.094Z,6.78
2023-09-29T08:26:32.967Z,7.30
2023-09-29T08:29:01.250Z,8.23
2023-09-29T08:31:29.469Z,7.72
2023-09-29T08:33:58.315Z,7.85
2023-09-29T08:36:25.820Z,7.88
2023-09-29T08:38:53.501Z,7.40
2023-09-29T08:41:27.389Z,11.52
2023-09-29T08:44:06.172Z,9.32
2023-09-29T08:46:36.321Z,8.13
2023-09-29T08:49:06.468Z,7.68
2023-09-29T08:51:35.250Z,7.22
2023-09-29T08:54:04.989Z,6.45
2023-09-29T08:56:33.095Z,6.13
2023-09-29T08:59:01.907Z,7.18
2023-09-29T09:01:31.365Z,7.85
2023-09-29T09:03:59.215Z,6.45
2023-09-29T09:06:29.216Z,6.60
2023-09-29T09:08:57.719Z,6.75
2023-09-29T09:11:25.210Z,6.35
2023-09-29T09:14:00.869Z,7.15
2023-09-29T09:16:29.052Z,7.57
2023-09-29T09:18:56.829Z,7.75
2023-09-29T09:21:34.216Z,8.00
2023-09-29T09:24:01.749Z,7.10
2023-09-29T09:26:30.650Z,7.53
2023-09-29T09:29:08.999Z,7.30
2023-09-29T09:31:44.795Z,8.40
2023-09-29T09:34:14.038Z,6.20
2023-09-29T09:36:53.718Z,6.45
2023-09-29T09:39:25.076Z,6.97
2023-09-29T09:41:54.263Z,6.55
2023-09-29T09:44:22.170Z,6.40
2023-09-29T09:46:55.171Z,8.38
2023-09-29T09:49:30.303Z,7.03
2023-09-29T09:52:04.750Z,6.75
2023-09-29T09:54:36.091Z,6.88
2023-09-29T09:57:09.901Z,7.32
2023-09-29T09:59:38.162Z,6.55
2023-09-29T10:02:08.650Z,7.07
2023-09-29T10:04:38.512Z,5.90
2023-09-29T10:07:08.378Z,6.38
2023-09-29T10:09:44.739Z,7.55
2023-09-29T10:12:28.746Z,6.38
2023-09-29T10:14:57.215Z,6.13
2023-09-29T10:17:24.819Z,6.18
2023-09-29T10:19:55.414Z,5.95
2023-09-29T10:22:26.213Z,6.97
2023-09-29T10:24:58.306Z,6.78
2023-09-29T10:27:32.074Z,6.18
2023-09-29T10:30:17.549Z,5.97
2023-09-29T10:32:49.557Z,5.93
2023-09-29T10:35:21.975Z,6.38
2023-09-29T10:37:56.104Z,7.10
2023-09-29T10:40:26.711Z,6.50
2023-09-29T10:42:57.571Z,7.32
2023-09-29T10:45:31.254Z,6.70
2023-09-29T10:48:03.120Z,5.90
2023-09-29T10:50:30.974Z,6.13
2023-09-29T10:52:59.778Z,6.47
2023-09-29T10:55:27.420Z,6.00
2023-09-29T10:57:59.467Z,6.57
2023-09-29T11:00:27.022Z,6.60
2023-09-29T11:02:55.301Z,5.93
2023-09-29T11:05:22.832Z,7.57
2023-09-29T11:07:52.922Z,5.80
2023-09-29T11:10:22.444Z,5.38
2023-09-29T11:12:50.682Z,5.85
2023-09-29T11:15:19.731Z,5.35
2023-09-29T11:17:48.866Z,6.40
2023-09-29T11:20:26.041Z,8.75
2023-09-29T11:23:05.121Z,5.90
2023-09-29T11:25:34.239Z,6.43
2023-09-29T11:28:03.816Z,6.55
2023-09-29T11:30:31.355Z,6.28
2023-09-29T11:32:58.880Z,6.95
2023-09-29T11:35:26.569Z,6.13
2023-09-29T11:37:54.011Z,6.55
2023-09-29T11:40:21.688Z,5.78
2023-09-29T11:42:50.859Z,6.82
2023-09-29T11:45:18.364Z,5.72
2023-09-29T11:47:46.182Z,6.35
2023-09-29T11:50:14.225Z,6.07
2023-09-29T11:52:42.836Z,6.90
2023-09-29T11:55:12.744Z,6.82
2023-09-29T11:57:41.766Z,7.10
2023-09-29T12:00:12.873Z,6.70
2023-09-29T12:02:40.740Z,6.38
2023-09-29T12:05:10.406Z,5.50
2023-09-29T12:07:37.859Z,6.03
2023-09-29T12:10:06.294Z,7.10
2023-09-29T12:12:34.240Z,7.03
2023-09-29T12:15:01.938Z,6.95
2023-09-29T12:17:31.340Z,6.53
2023-09-29T12:19:59.844Z,6.53
2023-09-29T12:22:31.949Z,5.90
2023-09-29T12:24:59.529Z,6.05
2023-09-29T12:27:27.291Z,5.88
2023-09-29T12:29:55.031Z,6.13
2023-09-29T12:32:22.549Z,6.50
2023-09-29T12:34:51.874Z,6.18
2023-09-29T12:37:19.364Z,5.78
2023-09-29T12:39:50.504Z,6.35
2023-09-29T12:42:17.977Z,8.38
2023-09-29T12:44:47.784Z,8.77
2023-09-29T12:47:15.286Z,7.75
2023-09-29T12:49:43.307Z,7.20
2023-09-29T12:52:12.202Z,7.05
2023-09-29T12:54:40.339Z,6.10
2023-09-29T12:57:08.207Z,6.82
2023-09-29T12:59:37.278Z,8.20
2023-09-29T13:02:05.061Z,8.60
2023-09-29T13:04:32.671Z,6.53
2023-09-29T13:07:00.547Z,6.60
2023-09-29T13:09:29.747Z,6.00
2023-09-29T13:11:57.414Z,10.75
2023-09-29T13:14:25.503Z,8.35
2023-09-29T13:16:53.418Z,7.03
2023-09-29T13:19:23.525Z,5.95
2023-09-29T13:21:51.525Z,6.22
2023-09-29T13:24:19.805Z,5.70
2023-09-29T13:26:48.664Z,5.75
2023-09-29T13:29:16.585Z,6.25
2023-09-29T13:31:44.026Z,5.93
2023-09-29T13:34:11.805Z,5.47
2023-09-29T13:36:39.526Z,6.85
2023-09-29T13:39:08.619Z,7.38
2023-09-29T13:41:36.211Z,8.13
2023-09-29T13:44:05.491Z,7.78
2023-09-29T13:46:32.978Z,6.82
2023-09-29T13:49:00.454Z,7.53
2023-09-29T13:51:28.202Z,5.63
2023-09-29T13:53:56.035Z,5.80
2023-09-29T13:56:23.916Z,6.90
2023-09-29T13:58:51.911Z,7.75
2023-09-29T14:01:21.043Z,11.80
2023-09-29T14:03:48.845Z,10.77
2023-09-29T14:06:17.195Z,8.55
2023-09-29T14:08:44.751Z,10.50
2023-09-29T14:11:12.220Z,8.15
2023-09-29T14:13:39.662Z,12.40
2023-09-29T14:16:08.053Z,13.82
2023-09-29T14:18:36.819Z,12.63
2023-09-29T14:21:04.386Z,13.07
2023-09-29T14:23:34.680Z,11.52
2023-09-29T14:26:04.163Z,8.23
2023-09-29T14:28:31.614Z,7.20
2023-09-29T14:30:59.062Z,7.43
2023-09-29T14:33:26.549Z,10.00
2023-09-29T14:35:55.503Z,9.52
2023-09-29T14:38:22.978Z,12.30
2023-09-29T14:40:51.003Z,10.57
2023-09-29T14:43:18.444Z,9.75
2023-09-29T14:45:46.575Z,8.50
2023-09-29T14:48:14.224Z,7.80
2023-09-29T14:50:42.112Z,9.23
2023-09-29T14:53:11.584Z,7.95
2023-09-29T14:55:39.804Z,9.18
2023-09-29T14:58:07.461Z,8.60
2023-09-29T15:00:35.159Z,7.63
2023-09-29T15:03:03.130Z,8.30
2023-09-29T15:05:30.894Z,7.35
2023-09-29T15:07:58.420Z,7.65
2023-09-29T15:10:27.149Z,8.73
2023-09-29T15:12:54.659Z,8.90
2023-09-29T15:15:22.161Z,15.48
2023-09-29T15:17:49.884Z,20.17
2023-09-29T15:20:17.559Z,10.95
2023-09-29T15:22:45.055Z,8.95
2023-09-29T15:25:12.555Z,9.70
2023-09-29T15:27:41.833Z,8.20
2023-09-29T15:30:12.638Z,8.20
2023-09-29T15:32:42.422Z,7.53
2023-09-29T15:35:12.319Z,7.20
2023-09-29T15:37:39.984Z,8.30
2023-09-29T15:40:08.864Z,7.00
2023-09-29T15:42:36.294Z,7.25
2023-09-29T15:45:06.052Z,6.95
2023-09-29T15:47:33.599Z,7.53
2023-09-29T15:50:05.238Z,10.60
2023-09-29T15:52:32.750Z,7.00
2023-09-29T15:55:00.223Z,6.88
2023-09-29T15:57:28.589Z,7.22
2023-09-29T15:59:56.814Z,7.10
2023-09-29T16:02:27.460Z,13.23
2023-09-29T16:04:55.583Z,9.38
2023-09-29T16:07:23.153Z,60.17
2023-09-29T16:09:50.637Z,40.05
2023-09-29T16:12:18.370Z,19.67
2023-09-29T16:14:45.864Z,16.98
2023-09-29T16:17:13.326Z,12.85
2023-09-29T16:19:42.093Z,12.40
2023-09-29T16:22:10.335Z,9.05
2023-09-29T16:24:40.596Z,11.40
2023-09-29T16:27:08.126Z,11.85
2023-09-29T16:29:37.241Z,9.02
2023-09-29T16:32:10.959Z,11.20
2023-09-29T16:34:46.661Z,11.30
2023-09-29T16:37:15.283Z,10.32
2023-09-29T16:39:42.857Z,20.15
2023-09-29T16:42:10.302Z,24.88
2023-09-29T16:44:39.390Z,17.65
2023-09-29T16:47:06.857Z,20.45
2023-09-29T16:49:34.303Z,12.30
2023-09-29T16:52:03.123Z,16.50
2023-09-29T16:54:34.146Z,12.52
2023-09-29T16:57:01.938Z,10.25
2023-09-29T16:59:29.422Z,11.32
2023-09-29T17:01:57.174Z,9.98
2023-09-29T17:04:24.651Z,8.93
2023-09-29T17:06:52.128Z,8.90
2023-09-29T17:09:22.473Z,9.73
2023-09-29T17:11:50.124Z,19.60
2023-09-29T17:14:17.639Z,15.27
2023-09-29T17:16:45.227Z,10.40
2023-09-29T17:19:12.883Z,18.63
2023-09-29T17:21:40.459Z,23.52
2023-09-29T17:24:08.359Z,11.60
2023-09-29T17:26:37.213Z,21.13
2023-09-29T17:29:05.287Z,14.77
2023-09-29T17:31:33.487Z,12.30
2023-09-29T17:34:01.004Z,11.75
2023-09-29T17:36:28.545Z,9.70
2023-09-29T17:38:56.446Z,8.57
2023-09-29T17:41:24.021Z,11.43
2023-09-29T17:43:53.033Z,8.65
2023-09-29T17:46:20.525Z,28.33
2023-09-29T17:48:47.994Z,14.95
2023-09-29T17:51:16.624Z,12.38
2023-09-29T17:53:46.105Z,11.15
2023-09-29T17:56:14.232Z,12.15
2023-09-29T17:58:42.364Z,8.88
2023-09-29T18:01:12.113Z,7.85
2023-09-29T18:03:40.966Z,8.40
2023-09-29T18:06:09.380Z,9.75
2023-09-29T18:08:37.082Z,10.80
2023-09-29T18:11:05.430Z,12.00
2023-09-29T18:13:34.093Z,10.82
2023-09-29T18:16:01.732Z,24.71
2023-09-29T18:18:30.825Z,10.52
2023-09-29T18:21:01.045Z,28.40
2023-09-29T18:23:28.745Z,13.05
2023-09-29T18:25:56.156Z,12.82
2023-09-29T18:28:25.210Z,11.55
2023-09-29T18:30:52.900Z,26.77
2023-09-29T18:33:20.452Z,11.55
2023-09-29T18:35:49.277Z,11.57
2023-09-29T18:38:16.744Z,11.32
2023-09-29T18:40:44.187Z,10.77
2023-09-29T18:43:11.649Z,12.82
2023-09-29T18:45:39.142Z,11.75
2023-09-29T18:48:07.269Z,10.35
2023-09-29T18:50:35.849Z,11.20
2023-09-29T18:53:04.917Z,11.63
2023-09-29T18:55:32.534Z,18.52
2023-09-29T18:57:59.999Z,19.30
2023-09-29T19:00:32.896Z,23.42
2023-09-29T19:03:00.665Z,16.38
2023-09-29T19:05:28.210Z,12.48
2023-09-29T19:07:55.663Z,26.40
2023-09-29T19:10:24.442Z,25.83
2023-09-29T19:12:53.653Z,59.50
2023-09-29T19:15:22.520Z,31.60
2023-09-29T19:17:50.588Z,9.68
2023-09-29T19:20:18.645Z,17.05
2023-09-29T19:22:46.311Z,20.20
2023-09-29T19:25:13.837Z,10.18
2023-09-29T19:27:42.604Z,34.45
2023-09-29T19:30:11.720Z,32.58
2023-09-29T19:32:39.898Z,16.40
2023-09-29T19:35:08.080Z,12.55
2023-09-29T19:37:35.573Z,22.55
2023-09-29T19:40:03.085Z,7.45
2023-09-29T19:42:30.531Z,14.30
2023-09-29T19:44:59.547Z,15.45
2023-09-29T19:47:27.064Z,20.33
2023-09-29T19:49:54.499Z,15.13
2023-09-29T19:52:21.965Z,51.97
2023-09-29T19:54:49.490Z,12.93
2023-09-29T19:57:17.484Z,25.42
2023-09-29T19:59:45.541Z,22.90
2023-09-29T20:02:15.458Z,10.18
2023-09-29T20:04:42.965Z,7.75
2023-09-29T20:07:10.455Z,4.47
2023-09-29T20:09:37.988Z,4.55
2023-09-29T20:12:05.689Z,4.55
2023-09-29T20:14:33.155Z,5.57
2023-09-29T20:17:00.774Z,4.60
2023-09-29T20:19:29.574Z,4.93
2023-09-29T20:21:57.079Z,4.63
2023-09-29T20:24:25.264Z,4.70
2023-09-29T20:26:52.802Z,4.53
2023-09-29T20:29:23.249Z,4.75
2023-09-29T20:31:52.168Z,5.13
2023-09-29T20:34:19.711Z,5.43
2023-09-29T20:36:49.628Z,5.30
2023-09-29T20:39:17.810Z,5.20
2023-09-29T20:41:45.331Z,5.03
2023-09-29T20:44:13.276Z,4.70
2023-09-29T20:46:40.837Z,4.70
2023-09-29T20:49:08.268Z,4.38
2023-09-29T20:51:35.814Z,4.82
2023-09-29T20:54:04.805Z,4.47
2023-09-29T20:56:36.681Z,4.15
2023-09-29T20:59:05.146Z,4.88
2023-09-29T21:01:32.851Z,4.95
2023-09-29T21:04:07.320Z,4.60
2023-09-29T21:06:35.464Z,5.93
2023-09-29T21:09:04.594Z,6.90
2023-09-29T21:11:33.533Z,4.75
2023-09-29T21:14:01.349Z,4.50
2023-09-29T21:16:29.078Z,4.82
2023-09-29T21:18:56.700Z,4.68
2023-09-29T21:21:24.225Z,5.65
2023-09-29T21:23:51.797Z,4.40
2023-09-29T21:26:20.705Z,4.60
2023-09-29T21:28:48.246Z,4.68
2023-09-29T21:31:16.505Z,3.92
2023-09-29T21:33:44.228Z,4.20
2023-09-29T21:36:15.622Z,4.60
2023-09-29T21:38:43.436Z,4.50
2023-09-29T21:41:11.166Z,4.32
2023-09-29T21:43:40.270Z,4.82
2023-09-29T21:46:08.074Z,5.55
2023-09-29T21:48:36.433Z,5.07
2023-09-29T21:51:04.291Z,5.45
2023-09-29T21:53:31.781Z,5.00
2023-09-29T21:55:59.221Z,4.35
2023-09-29T21:58:26.708Z,4.70
2023-09-29T22:00:56.410Z,4.80
2023-09-29T22:03:24.265Z,4.20
2023-09-29T22:05:54.052Z,4.53
2023-09-29T22:08:22.129Z,4.47
2023-09-29T22:10:50.142Z,4.63
2023-09-29T22:13:20.778Z,4.32
2023-09-29T22:15:49.646Z,4.60
2023-09-29T22:18:19.183Z,4.15
2023-09-29T22:20:47.370Z,3.63
2023-09-29T22:23:17.939Z,3.83
2023-09-29T22:25:45.529Z,3.67
2023-09-29T22:28:13.070Z,3.30
2023-09-29T22:30:43.372Z,2.50
2023-09-29T22:33:10.959Z,2.42
2023-09-29T22:35:40.714Z,2.15
2023-09-29T22:38:09.010Z,1.58
2023-09-29T22:40:36.653Z,1.80
2023-09-29T22:43:04.650Z,1.60
2023-09-29T22:45:32.461Z,1.70
2023-09-29T22:48:00.153Z,1.10
2023-09-29T22:50:28.384Z,1.30
2023-09-29T22:52:57.169Z,0.95
2023-09-29T22:55:24.830Z,1.00
2023-09-29T22:57:52.716Z,0.77
2023-09-29T23:00:20.338Z,0.95
2023-09-29T23:02:48.052Z,0.82
2023-09-29T23:05:16.641Z,0.98
2023-09-29T23:07:44.286Z,1.33
2023-09-29T23:10:16.013Z,0.80
2023-09-29T23:12:47.099Z,1.10
2023-09-29T23:15:15.263Z,1.13
2023-09-29T23:17:42.868Z,0.98
2023-09-29T23:20:12.058Z,0.80
2023-09-29T23:22:39.981Z,0.90
2023-09-29T23:25:10.523Z,1.10
2023-09-29T23:27:39.711Z,1.07
2023-09-29T23:30:10.081Z,1.00
2023-09-29T23:32:38.489Z,1.20
2023-09-29T23:35:06.597Z,1.00
2023-09-29T23:37:34.108Z,1.40
2023-09-29T23:40:01.858Z,1.10
2023-09-29T23:42:29.496Z,1.40
2023-09-29T23:44:59.521Z,1.20
2023-09-29T23:47:27.433Z,1.30
2023-09-29T23:49:54.947Z,1.23
2023-09-29T23:52:22.765Z,1.33
2023-09-29T23:54:50.464Z,1.50
2023-09-29T23:57:18.077Z,2.83
2023-09-29T23:59:46.235Z,1.90
